sensor_id;sensor_type;location;lat;lon;timestamp;pressure;altitude;pressure_sealevel;temperature;humidity
33554;BME280;19885;42.208;24.952;2023-01-13T00:00:05;100260.50;;;7.96;84.71
33554;BME280;19885;42.208;24.952;2023-01-13T00:02:36;100249.31;;;7.99;84.42
33554;BME280;19885;42.208;24.952;2023-01-13T00:05:07;100252.84;;;8.02;83.32
33554;BME280;19885;42.208;24.952;2023-01-13T00:07:35;100252.75;;;7.98;83.58
33554;BME280;19885;42.208;24.952;2023-01-13T00:10:02;100251.84;;;7.96;84.00
33554;BME280;19885;42.208;24.952;2023-01-13T00:12:30;100253.59;;;7.97;83.83
33554;BME280;19885;42.208;24.952;2023-01-13T00:15:01;100257.03;;;7.96;83.73
33554;BME280;19885;42.208;24.952;2023-01-13T00:17:27;100259.72;;;8.00;84.19
33554;BME280;19885;42.208;24.952;2023-01-13T00:19:52;100244.94;;;7.96;83.85
33554;BME280;19885;42.208;24.952;2023-01-13T00:22:18;100258.94;;;8.04;84.32
33554;BME280;19885;42.208;24.952;2023-01-13T00:24:43;100259.03;;;8.07;84.20
33554;BME280;19885;42.208;24.952;2023-01-13T00:27:09;100253.75;;;8.04;84.20
33554;BME280;19885;42.208;24.952;2023-01-13T00:29:35;100264.22;;;8.07;84.09
33554;BME280;19885;42.208;24.952;2023-01-13T00:32:03;100243.25;;;7.98;84.48
33554;BME280;19885;42.208;24.952;2023-01-13T00:34:28;100267.81;;;8.14;84.85
33554;BME280;19885;42.208;24.952;2023-01-13T00:36:57;100209.28;;;7.87;85.13
33554;BME280;19885;42.208;24.952;2023-01-13T00:39:22;100263.66;;;8.20;84.61
33554;BME280;19885;42.208;24.952;2023-01-13T00:41:51;100257.66;;;8.23;84.05
33554;BME280;19885;42.208;24.952;2023-01-13T00:44:35;100235.88;;;8.16;85.14
33554;BME280;19885;42.208;24.952;2023-01-13T00:47:01;100248.03;;;8.19;84.65
33554;BME280;19885;42.208;24.952;2023-01-13T00:49:26;100263.06;;;8.32;85.18
33554;BME280;19885;42.208;24.952;2023-01-13T00:51:54;100267.47;;;8.34;84.23
33554;BME280;19885;42.208;24.952;2023-01-13T00:54:19;100252.50;;;8.24;84.29
33554;BME280;19885;42.208;24.952;2023-01-13T00:56:45;100254.38;;;8.30;84.21
33554;BME280;19885;42.208;24.952;2023-01-13T00:59:12;100184.25;;;7.89;84.49
33554;BME280;19885;42.208;24.952;2023-01-13T01:01:40;100248.16;;;8.25;84.79
33554;BME280;19885;42.208;24.952;2023-01-13T01:04:06;100263.06;;;8.30;85.17
33554;BME280;19885;42.208;24.952;2023-01-13T01:06:31;100260.53;;;8.33;85.65
33554;BME280;19885;42.208;24.952;2023-01-13T01:08:59;100254.59;;;8.39;85.84
33554;BME280;19885;42.208;24.952;2023-01-13T01:11:28;100244.16;;;8.36;86.04
33554;BME280;19885;42.208;24.952;2023-01-13T01:13:57;100252.03;;;8.40;86.31
33554;BME280;19885;42.208;24.952;2023-01-13T01:16:28;100229.41;;;8.35;86.61
33554;BME280;19885;42.208;24.952;2023-01-13T01:18:55;100251.19;;;8.43;86.93
33554;BME280;19885;42.208;24.952;2023-01-13T01:21:21;100218.84;;;8.27;86.86
33554;BME280;19885;42.208;24.952;2023-01-13T01:23:47;100236.47;;;8.42;86.50
33554;BME280;19885;42.208;24.952;2023-01-13T01:26:18;100245.19;;;8.45;87.22
33554;BME280;19885;42.208;24.952;2023-01-13T01:28:44;100235.69;;;8.46;87.32
33554;BME280;19885;42.208;24.952;2023-01-13T01:31:13;100238.31;;;8.47;87.83
33554;BME280;19885;42.208;24.952;2023-01-13T01:33:38;100231.31;;;8.43;87.90
33554;BME280;19885;42.208;24.952;2023-01-13T01:36:05;100235.63;;;8.43;88.12
33554;BME280;19885;42.208;24.952;2023-01-13T01:38:33;100233.81;;;8.39;88.00
33554;BME280;19885;42.208;24.952;2023-01-13T01:41:01;100225.91;;;8.33;88.10
33554;BME280;19885;42.208;24.952;2023-01-13T01:44:01;100234.53;;;8.32;88.31
33554;BME280;19885;42.208;24.952;2023-01-13T01:46:31;100155.53;;;7.82;87.11
33554;BME280;19885;42.208;24.952;2023-01-13T01:49:21;100237.00;;;8.26;86.79
33554;BME280;19885;42.208;24.952;2023-01-13T01:52:01;100240.34;;;8.23;86.24
33554;BME280;19885;42.208;24.952;2023-01-13T01:54:58;100224.03;;;8.27;86.16
33554;BME280;19885;42.208;24.952;2023-01-13T01:57:30;100235.31;;;8.28;85.16
33554;BME280;19885;42.208;24.952;2023-01-13T01:59:58;100223.91;;;8.23;85.90
33554;BME280;19885;42.208;24.952;2023-01-13T02:02:26;100229.97;;;8.23;86.29
33554;BME280;19885;42.208;24.952;2023-01-13T02:04:53;100215.09;;;8.15;85.52
33554;BME280;19885;42.208;24.952;2023-01-13T02:07:26;100235.28;;;8.26;85.82
33554;BME280;19885;42.208;24.952;2023-01-13T02:09:54;100239.59;;;8.27;85.59
33554;BME280;19885;42.208;24.952;2023-01-13T02:12:20;100222.91;;;8.18;86.22
33554;BME280;19885;42.208;24.952;2023-01-13T02:15:00;100243.84;;;8.24;85.69
33554;BME280;19885;42.208;24.952;2023-01-13T02:35:13;100252.59;;;8.27;87.53
33554;BME280;19885;42.208;24.952;2023-01-13T02:37:45;100250.94;;;7.93;88.91
33554;BME280;19885;42.208;24.952;2023-01-13T02:42:47;100245.75;;;7.58;91.74
33554;BME280;19885;42.208;24.952;2023-01-13T02:45:40;100178.13;;;7.14;93.35
33554;BME280;19885;42.208;24.952;2023-01-13T02:48:08;100244.09;;;7.61;93.23
33554;BME280;19885;42.208;24.952;2023-01-13T02:50:42;100163.09;;;7.36;92.69
33554;BME280;19885;42.208;24.952;2023-01-13T02:53:35;100246.66;;;7.96;91.51
33554;BME280;19885;42.208;24.952;2023-01-13T02:56:03;100246.31;;;7.82;91.61
33554;BME280;19885;42.208;24.952;2023-01-13T02:58:31;100254.00;;;7.43;93.32
33554;BME280;19885;42.208;24.952;2023-01-13T03:00:59;100254.13;;;7.48;94.28
33554;BME280;19885;42.208;24.952;2023-01-13T03:03:24;100226.81;;;7.62;93.61
33554;BME280;19885;42.208;24.952;2023-01-13T03:08:59;100251.84;;;7.60;93.83
33554;BME280;19885;42.208;24.952;2023-01-13T03:11:35;100241.34;;;7.54;93.52
33554;BME280;19885;42.208;24.952;2023-01-13T03:17:28;100252.38;;;7.47;94.40
33554;BME280;19885;42.208;24.952;2023-01-13T03:20:05;100256.00;;;7.53;94.83
33554;BME280;19885;42.208;24.952;2023-01-13T03:27:57;100256.00;;;7.89;93.20
33554;BME280;19885;42.208;24.952;2023-01-13T03:30:47;100252.00;;;8.02;93.07
33554;BME280;19885;42.208;24.952;2023-01-13T03:33:18;100259.94;;;8.09;92.68
33554;BME280;19885;42.208;24.952;2023-01-13T03:35:52;100256.53;;;8.12;92.51
33554;BME280;19885;42.208;24.952;2023-01-13T03:38:28;100260.09;;;8.15;92.22
33554;BME280;19885;42.208;24.952;2023-01-13T03:41:04;100256.09;;;7.92;92.90
33554;BME280;19885;42.208;24.952;2023-01-13T03:43:37;100182.38;;;7.47;92.70
33554;BME280;19885;42.208;24.952;2023-01-13T03:46:30;100265.88;;;8.04;92.85
33554;BME280;19885;42.208;24.952;2023-01-13T03:48:58;100274.59;;;8.07;92.03
33554;BME280;19885;42.208;24.952;2023-01-13T03:51:30;100267.56;;;8.02;91.97
33554;BME280;19885;42.208;24.952;2023-01-13T03:54:02;100262.97;;;7.90;92.30
33554;BME280;19885;42.208;24.952;2023-01-13T03:56:37;100274.94;;;7.85;92.89
33554;BME280;19885;42.208;24.952;2023-01-13T03:59:08;100278.47;;;7.54;94.07
33554;BME280;19885;42.208;24.952;2023-01-13T04:01:41;100207.13;;;7.34;94.78
33554;BME280;19885;42.208;24.952;2023-01-13T04:04:20;100267.88;;;7.45;94.34
33554;BME280;19885;42.208;24.952;2023-01-13T04:07:04;100260.53;;;7.62;94.07
33554;BME280;19885;42.208;24.952;2023-01-13T04:12:25;100281.84;;;7.84;93.56
33554;BME280;19885;42.208;24.952;2023-01-13T04:15:13;100274.72;;;7.76;93.53
33554;BME280;19885;42.208;24.952;2023-01-13T04:17:39;100273.03;;;7.78;93.48
33554;BME280;19885;42.208;24.952;2023-01-13T04:20:05;100280.78;;;7.76;93.28
33554;BME280;19885;42.208;24.952;2023-01-13T04:22:30;100289.50;;;7.78;94.09
33554;BME280;19885;42.208;24.952;2023-01-13T04:24:56;100288.28;;;7.66;93.99
33554;BME280;19885;42.208;24.952;2023-01-13T04:27:24;100277.22;;;7.73;93.45
33554;BME280;19885;42.208;24.952;2023-01-13T04:29:49;100293.78;;;7.78;93.35
33554;BME280;19885;42.208;24.952;2023-01-13T04:32:14;100286.56;;;7.65;92.83
33554;BME280;19885;42.208;24.952;2023-01-13T04:34:40;100296.19;;;7.70;93.62
33554;BME280;19885;42.208;24.952;2023-01-13T04:37:06;100293.75;;;7.76;92.83
33554;BME280;19885;42.208;24.952;2023-01-13T04:39:31;100292.75;;;7.70;92.79
33554;BME280;19885;42.208;24.952;2023-01-13T04:41:56;100270.69;;;7.53;92.86
33554;BME280;19885;42.208;24.952;2023-01-13T04:44:22;100296.13;;;7.35;92.79
33554;BME280;19885;42.208;24.952;2023-01-13T04:46:47;100300.19;;;7.25;92.57
33554;BME280;19885;42.208;24.952;2023-01-13T04:49:13;100302.28;;;7.38;93.58
33554;BME280;19885;42.208;24.952;2023-01-13T04:51:44;100300.09;;;7.53;93.17
33554;BME280;19885;42.208;24.952;2023-01-13T04:54:10;100313.38;;;7.34;92.38
33554;BME280;19885;42.208;24.952;2023-01-13T04:56:35;100296.78;;;7.26;92.90
33554;BME280;19885;42.208;24.952;2023-01-13T04:59:04;100306.66;;;7.41;91.81
33554;BME280;19885;42.208;24.952;2023-01-13T05:01:30;100311.22;;;7.49;93.57
33554;BME280;19885;42.208;24.952;2023-01-13T05:03:56;100309.59;;;7.54;92.57
33554;BME280;19885;42.208;24.952;2023-01-13T05:06:21;100319.28;;;7.61;92.59
33554;BME280;19885;42.208;24.952;2023-01-13T05:08:47;100312.31;;;7.59;91.37
33554;BME280;19885;42.208;24.952;2023-01-13T05:11:15;100313.97;;;7.55;92.02
33554;BME280;19885;42.208;24.952;2023-01-13T05:13:59;100327.38;;;7.41;92.81
33554;BME280;19885;42.208;24.952;2023-01-13T05:16:45;100320.75;;;7.19;92.52
33554;BME280;19885;42.208;24.952;2023-01-13T05:19:32;100326.84;;;7.19;92.78
33554;BME280;19885;42.208;24.952;2023-01-13T05:21:59;100322.78;;;7.29;93.11
33554;BME280;19885;42.208;24.952;2023-01-13T05:24:43;100325.69;;;7.10;91.81
33554;BME280;19885;42.208;24.952;2023-01-13T05:27:28;100317.66;;;7.32;92.45
33554;BME280;19885;42.208;24.952;2023-01-13T05:29:54;100319.59;;;7.39;92.60
33554;BME280;19885;42.208;24.952;2023-01-13T05:32:20;100327.63;;;7.50;91.88
33554;BME280;19885;42.208;24.952;2023-01-13T05:34:52;100253.78;;;7.01;92.05
33554;BME280;19885;42.208;24.952;2023-01-13T05:37:18;100339.63;;;7.45;91.80
33554;BME280;19885;42.208;24.952;2023-01-13T05:39:43;100337.59;;;7.35;92.55
33554;BME280;19885;42.208;24.952;2023-01-13T05:42:30;100330.84;;;7.40;92.38
33554;BME280;19885;42.208;24.952;2023-01-13T05:45:14;100339.41;;;7.37;93.17
33554;BME280;19885;42.208;24.952;2023-01-13T05:47:45;100333.56;;;7.44;92.67
33554;BME280;19885;42.208;24.952;2023-01-13T05:50:14;100334.44;;;7.45;92.55
33554;BME280;19885;42.208;24.952;2023-01-13T05:52:43;100340.53;;;7.15;92.15
33554;BME280;19885;42.208;24.952;2023-01-13T05:55:11;100333.34;;;7.37;92.81
33554;BME280;19885;42.208;24.952;2023-01-13T05:57:40;100338.63;;;7.40;91.76
33554;BME280;19885;42.208;24.952;2023-01-13T06:00:07;100344.81;;;7.45;92.53
33554;BME280;19885;42.208;24.952;2023-01-13T06:02:33;100351.72;;;7.46;92.53
33554;BME280;19885;42.208;24.952;2023-01-13T06:04:58;100330.75;;;7.37;92.59
33554;BME280;19885;42.208;24.952;2023-01-13T06:07:23;100351.31;;;7.31;92.80
33554;BME280;19885;42.208;24.952;2023-01-13T06:09:49;100344.56;;;7.36;92.35
33554;BME280;19885;42.208;24.952;2023-01-13T06:12:14;100338.84;;;7.49;91.47
33554;BME280;19885;42.208;24.952;2023-01-13T06:14:40;100337.97;;;7.48;91.10
33554;BME280;19885;42.208;24.952;2023-01-13T06:17:14;100360.13;;;7.36;91.86
33554;BME280;19885;42.208;24.952;2023-01-13T06:19:40;100339.13;;;7.27;92.40
33554;BME280;19885;42.208;24.952;2023-01-13T06:22:32;100363.13;;;7.52;92.48
33554;BME280;19885;42.208;24.952;2023-01-13T06:25:00;100365.84;;;7.57;91.63
33554;BME280;19885;42.208;24.952;2023-01-13T06:27:27;100360.63;;;7.55;91.07
33554;BME280;19885;42.208;24.952;2023-01-13T06:29:53;100362.34;;;7.55;90.80
33554;BME280;19885;42.208;24.952;2023-01-13T06:32:25;100372.94;;;7.62;90.97
33554;BME280;19885;42.208;24.952;2023-01-13T06:34:59;100369.47;;;7.62;91.55
33554;BME280;19885;42.208;24.952;2023-01-13T06:37:27;100368.53;;;7.60;91.04
33554;BME280;19885;42.208;24.952;2023-01-13T06:39:55;100373.06;;;7.67;91.42
33554;BME280;19885;42.208;24.952;2023-01-13T06:42:24;100369.53;;;7.65;91.66
33554;BME280;19885;42.208;24.952;2023-01-13T06:45:09;100363.63;;;7.70;92.39
33554;BME280;19885;42.208;24.952;2023-01-13T06:47:35;100348.84;;;7.68;92.42
33554;BME280;19885;42.208;24.952;2023-01-13T06:50:01;100363.84;;;7.78;92.34
33554;BME280;19885;42.208;24.952;2023-01-13T06:52:26;100351.84;;;7.50;92.33
33554;BME280;19885;42.208;24.952;2023-01-13T06:54:55;100365.78;;;7.22;93.94
33554;BME280;19885;42.208;24.952;2023-01-13T06:57:21;100372.59;;;7.19;94.48
33554;BME280;19885;42.208;24.952;2023-01-13T06:59:46;100333.97;;;6.97;94.83
33554;BME280;19885;42.208;24.952;2023-01-13T07:02:12;100356.53;;;7.32;94.34
33554;BME280;19885;42.208;24.952;2023-01-13T07:04:37;100380.50;;;7.55;94.53
33554;BME280;19885;42.208;24.952;2023-01-13T07:07:02;100370.09;;;7.53;94.04
33554;BME280;19885;42.208;24.952;2023-01-13T07:09:28;100376.22;;;7.57;94.02
33554;BME280;19885;42.208;24.952;2023-01-13T07:11:53;100381.22;;;7.49;94.47
33554;BME280;19885;42.208;24.952;2023-01-13T07:14:19;100330.09;;;7.12;93.92
33554;BME280;19885;42.208;24.952;2023-01-13T07:17:03;100384.09;;;7.29;94.39
33554;BME280;19885;42.208;24.952;2023-01-13T07:19:28;100373.78;;;7.30;94.98
33554;BME280;19885;42.208;24.952;2023-01-13T07:21:54;100382.84;;;7.46;94.43
33554;BME280;19885;42.208;24.952;2023-01-13T07:24:19;100385.53;;;7.49;94.07
33554;BME280;19885;42.208;24.952;2023-01-13T07:26:46;100325.06;;;7.18;93.71
33554;BME280;19885;42.208;24.952;2023-01-13T07:29:12;100393.72;;;7.64;93.37
33554;BME280;19885;42.208;24.952;2023-01-13T07:31:37;100389.09;;;7.85;93.00
33554;BME280;19885;42.208;24.952;2023-01-13T07:34:07;100400.03;;;8.06;92.03
33554;BME280;19885;42.208;24.952;2023-01-13T07:36:33;100396.72;;;8.13;91.50
33554;BME280;19885;42.208;24.952;2023-01-13T07:38:59;100389.94;;;8.18;91.52
33554;BME280;19885;42.208;24.952;2023-01-13T07:41:25;100396.25;;;7.95;90.91
33554;BME280;19885;42.208;24.952;2023-01-13T07:44:09;100394.06;;;8.10;91.48
33554;BME280;19885;42.208;24.952;2023-01-13T07:46:35;100343.19;;;7.50;91.61
33554;BME280;19885;42.208;24.952;2023-01-13T07:49:02;100402.78;;;7.79;91.60
33554;BME280;19885;42.208;24.952;2023-01-13T07:51:27;100387.84;;;7.71;91.81
33554;BME280;19885;42.208;24.952;2023-01-13T07:53:53;100388.28;;;7.55;92.62
33554;BME280;19885;42.208;24.952;2023-01-13T07:56:18;100322.09;;;7.05;92.79
33554;BME280;19885;42.208;24.952;2023-01-13T07:58:44;100392.28;;;7.44;93.31
33554;BME280;19885;42.208;24.952;2023-01-13T08:01:15;100415.38;;;7.35;92.25
33554;BME280;19885;42.208;24.952;2023-01-13T08:03:41;100414.34;;;7.59;92.39
33554;BME280;19885;42.208;24.952;2023-01-13T08:06:07;100421.81;;;7.80;90.90
33554;BME280;19885;42.208;24.952;2023-01-13T08:08:33;100417.88;;;7.94;89.62
33554;BME280;19885;42.208;24.952;2023-01-13T08:11:00;100412.13;;;8.06;89.09
33554;BME280;19885;42.208;24.952;2023-01-13T08:13:26;100421.16;;;8.21;87.97
33554;BME280;19885;42.208;24.952;2023-01-13T08:15:57;100419.25;;;8.14;87.07
33554;BME280;19885;42.208;24.952;2023-01-13T08:18:23;100412.50;;;8.21;87.36
33554;BME280;19885;42.208;24.952;2023-01-13T08:20:49;100419.72;;;8.31;87.28
33554;BME280;19885;42.208;24.952;2023-01-13T08:23:17;100420.53;;;8.66;87.00
33554;BME280;19885;42.208;24.952;2023-01-13T08:25:43;100425.13;;;8.77;87.05
33554;BME280;19885;42.208;24.952;2023-01-13T08:28:09;100406.22;;;8.83;86.71
33554;BME280;19885;42.208;24.952;2023-01-13T08:30:34;100426.59;;;9.03;84.99
33554;BME280;19885;42.208;24.952;2023-01-13T08:33:00;100430.94;;;9.04;85.07
33554;BME280;19885;42.208;24.952;2023-01-13T08:35:26;100357.78;;;8.47;85.51
33554;BME280;19885;42.208;24.952;2023-01-13T08:37:51;100423.91;;;8.61;85.34
33554;BME280;19885;42.208;24.952;2023-01-13T08:40:18;100434.59;;;8.74;86.54
33554;BME280;19885;42.208;24.952;2023-01-13T08:42:45;100434.34;;;9.02;84.57
33554;BME280;19885;42.208;24.952;2023-01-13T08:45:12;100433.59;;;9.06;84.61
33554;BME280;19885;42.208;24.952;2023-01-13T08:47:38;100439.91;;;9.17;84.06
33554;BME280;19885;42.208;24.952;2023-01-13T08:50:04;100425.94;;;9.13;84.06
33554;BME280;19885;42.208;24.952;2023-01-13T08:52:29;100427.28;;;8.95;85.07
33554;BME280;19885;42.208;24.952;2023-01-13T08:54:55;100432.09;;;9.17;84.76
33554;BME280;19885;42.208;24.952;2023-01-13T08:57:21;100428.78;;;9.24;84.35
33554;BME280;19885;42.208;24.952;2023-01-13T08:59:47;100410.00;;;9.37;84.42
33554;BME280;19885;42.208;24.952;2023-01-13T09:02:19;100425.84;;;9.49;82.79
33554;BME280;19885;42.208;24.952;2023-01-13T09:04:45;100418.94;;;9.11;83.87
33554;BME280;19885;42.208;24.952;2023-01-13T09:07:10;100411.25;;;9.15;84.23
33554;BME280;19885;42.208;24.952;2023-01-13T09:09:36;100348.19;;;8.84;84.56
33554;BME280;19885;42.208;24.952;2023-01-13T09:12:03;100400.84;;;9.14;85.76
33554;BME280;19885;42.208;24.952;2023-01-13T09:14:49;100404.75;;;8.95;85.16
33554;BME280;19885;42.208;24.952;2023-01-13T09:17:15;100415.84;;;9.27;85.37
33554;BME280;19885;42.208;24.952;2023-01-13T09:19:41;100409.63;;;9.62;83.39
33554;BME280;19885;42.208;24.952;2023-01-13T09:22:09;100415.84;;;9.70;83.82
33554;BME280;19885;42.208;24.952;2023-01-13T09:24:38;100400.09;;;10.11;82.79
33554;BME280;19885;42.208;24.952;2023-01-13T09:27:03;100370.69;;;10.16;80.67
33554;BME280;19885;42.208;24.952;2023-01-13T09:29:29;100401.50;;;10.40;80.08
33554;BME280;19885;42.208;24.952;2023-01-13T09:31:54;100395.03;;;10.17;79.60
33554;BME280;19885;42.208;24.952;2023-01-13T09:34:23;100396.97;;;10.30;79.50
33554;BME280;19885;42.208;24.952;2023-01-13T09:37:07;100395.69;;;10.57;80.27
33554;BME280;19885;42.208;24.952;2023-01-13T09:39:34;100396.44;;;10.52;79.03
33554;BME280;19885;42.208;24.952;2023-01-13T09:42:55;100389.97;;;10.24;78.38
33554;BME280;19885;42.208;24.952;2023-01-13T09:45:24;100387.50;;;10.35;76.40
33554;BME280;19885;42.208;24.952;2023-01-13T09:47:58;100375.53;;;10.46;77.37
33554;BME280;19885;42.208;24.952;2023-01-13T09:56:40;100330.81;;;10.19;75.70
33554;BME280;19885;42.208;24.952;2023-01-13T09:59:09;100389.56;;;10.04;76.52
33554;BME280;19885;42.208;24.952;2023-01-13T10:01:53;100386.81;;;9.95;77.49
33554;BME280;19885;42.208;24.952;2023-01-13T10:04:23;100386.53;;;9.80;77.80
33554;BME280;19885;42.208;24.952;2023-01-13T10:06:56;100382.47;;;9.96;77.12
33554;BME280;19885;42.208;24.952;2023-01-13T10:09:31;100296.53;;;9.44;77.56
33554;BME280;19885;42.208;24.952;2023-01-13T10:11:59;100373.94;;;10.04;78.44
33554;BME280;19885;42.208;24.952;2023-01-13T10:14:51;100357.47;;;10.05;78.01
33554;BME280;19885;42.208;24.952;2023-01-13T10:17:38;100370.31;;;10.46;77.42
33554;BME280;19885;42.208;24.952;2023-01-13T10:23:40;100349.34;;;10.98;76.14
33554;BME280;19885;42.208;24.952;2023-01-13T10:28:51;100352.81;;;10.36;75.65
33554;BME280;19885;42.208;24.952;2023-01-13T10:31:18;100267.91;;;9.94;74.39
33554;BME280;19885;42.208;24.952;2023-01-13T10:33:44;100347.00;;;10.55;75.87
33554;BME280;19885;42.208;24.952;2023-01-13T10:36:14;100344.78;;;10.82;75.83
33554;BME280;19885;42.208;24.952;2023-01-13T10:38:46;100341.41;;;10.89;74.75
33554;BME280;19885;42.208;24.952;2023-01-13T10:41:16;100330.06;;;10.87;73.90
33554;BME280;19885;42.208;24.952;2023-01-13T10:43:43;100341.50;;;10.98;73.15
33554;BME280;19885;42.208;24.952;2023-01-13T10:46:14;100320.66;;;10.98;73.15
33554;BME280;19885;42.208;24.952;2023-01-13T10:48:50;100331.25;;;11.10;74.00
33554;BME280;19885;42.208;24.952;2023-01-13T10:56:17;100321.50;;;10.97;73.31
33554;BME280;19885;42.208;24.952;2023-01-13T10:58:42;100314.50;;;10.92;72.61
33554;BME280;19885;42.208;24.952;2023-01-13T11:01:19;100324.13;;;10.99;73.39
33554;BME280;19885;42.208;24.952;2023-01-13T11:03:44;100313.59;;;10.91;71.96
33554;BME280;19885;42.208;24.952;2023-01-13T11:08:48;100307.13;;;11.31;72.10
33554;BME280;19885;42.208;24.952;2023-01-13T11:11:42;100322.88;;;11.41;71.62
33554;BME280;19885;42.208;24.952;2023-01-13T11:14:35;100307.28;;;11.44;71.73
33554;BME280;19885;42.208;24.952;2023-01-13T11:18:07;100307.31;;;11.49;72.68
33554;BME280;19885;42.208;24.952;2023-01-13T11:20:14;100305.78;;;11.68;72.03
33554;BME280;19885;42.208;24.952;2023-01-13T11:22:47;100310.19;;;11.73;72.93
33554;BME280;19885;42.208;24.952;2023-01-13T11:25:37;100305.09;;;11.87;71.41
33554;BME280;19885;42.208;24.952;2023-01-13T11:33:53;100302.50;;;11.90;70.21
33554;BME280;19885;42.208;24.952;2023-01-13T11:36:39;100294.88;;;11.25;71.36
33554;BME280;19885;42.208;24.952;2023-01-13T11:42:19;100210.47;;;11.17;72.21
33554;BME280;19885;42.208;24.952;2023-01-13T11:45:44;100291.53;;;11.38;70.41
33554;BME280;19885;42.208;24.952;2023-01-13T11:47:53;100289.97;;;11.56;69.08
33554;BME280;19885;42.208;24.952;2023-01-13T11:50:41;100282.78;;;11.33;69.58
33554;BME280;19885;42.208;24.952;2023-01-13T11:56:16;100219.56;;;10.76;72.83
33554;BME280;19885;42.208;24.952;2023-01-13T12:04:25;100287.19;;;11.40;72.62
33554;BME280;19885;42.208;24.952;2023-01-13T12:18:07;100287.16;;;11.34;71.24
33554;BME280;19885;42.208;24.952;2023-01-13T12:23:34;100286.88;;;11.96;71.38
33554;BME280;19885;42.208;24.952;2023-01-13T12:26:10;100274.75;;;12.04;71.27
33554;BME280;19885;42.208;24.952;2023-01-13T12:28:44;100289.66;;;12.18;69.58
33554;BME280;19885;42.208;24.952;2023-01-13T12:31:11;100281.03;;;12.32;68.48
33554;BME280;19885;42.208;24.952;2023-01-13T12:33:50;100283.59;;;12.21;67.36
33554;BME280;19885;42.208;24.952;2023-01-13T12:47:39;100256.78;;;11.39;68.00
33554;BME280;19885;42.208;24.952;2023-01-13T12:52:52;100281.13;;;11.41;69.95
33554;BME280;19885;42.208;24.952;2023-01-13T12:55:25;100286.31;;;11.35;68.20
33554;BME280;19885;42.208;24.952;2023-01-13T13:08:45;100292.94;;;11.92;68.47
33554;BME280;19885;42.208;24.952;2023-01-13T13:11:21;100264.84;;;11.65;64.91
33554;BME280;19885;42.208;24.952;2023-01-13T13:14:14;100290.91;;;11.62;66.30
33554;BME280;19885;42.208;24.952;2023-01-13T13:16:50;100292.84;;;11.78;67.52
33554;BME280;19885;42.208;24.952;2023-01-13T13:30:14;100297.84;;;11.62;65.47
33554;BME280;19885;42.208;24.952;2023-01-13T13:35:46;100291.28;;;12.04;64.60
33554;BME280;19885;42.208;24.952;2023-01-13T13:41:43;100298.44;;;12.31;65.23
33554;BME280;19885;42.208;24.952;2023-01-13T13:44:32;100298.41;;;12.27;64.44
33554;BME280;19885;42.208;24.952;2023-01-13T13:47:20;100291.31;;;12.07;63.63
33554;BME280;19885;42.208;24.952;2023-01-13T13:49:48;100292.22;;;12.08;65.91
33554;BME280;19885;42.208;24.952;2023-01-13T13:52:26;100300.78;;;11.92;64.79
33554;BME280;19885;42.208;24.952;2023-01-13T13:54:59;100281.34;;;11.66;64.22
33554;BME280;19885;42.208;24.952;2023-01-13T13:57:35;100297.50;;;11.27;65.58
33554;BME280;19885;42.208;24.952;2023-01-13T14:00:07;100297.06;;;10.89;67.13
33554;BME280;19885;42.208;24.952;2023-01-13T14:02:50;100297.53;;;11.28;68.27
33554;BME280;19885;42.208;24.952;2023-01-13T14:07:48;100299.84;;;11.01;66.75
33554;BME280;19885;42.208;24.952;2023-01-13T14:12:45;100300.09;;;10.55;70.09
33554;BME280;19885;42.208;24.952;2023-01-13T14:15:27;100302.06;;;10.71;71.52
33554;BME280;19885;42.208;24.952;2023-01-13T14:17:57;100297.91;;;10.88;71.46
33554;BME280;19885;42.208;24.952;2023-01-13T14:20:23;100305.66;;;10.82;71.43
33554;BME280;19885;42.208;24.952;2023-01-13T14:22:51;100312.66;;;10.83;70.75
33554;BME280;19885;42.208;24.952;2023-01-13T14:25:36;100314.31;;;10.80;69.98
33554;BME280;19885;42.208;24.952;2023-01-13T14:28:17;100304.22;;;10.41;70.75
33554;BME280;19885;42.208;24.952;2023-01-13T14:30:45;100312.78;;;10.31;71.64
33554;BME280;19885;42.208;24.952;2023-01-13T14:33:20;100319.72;;;10.32;71.16
33554;BME280;19885;42.208;24.952;2023-01-13T14:38:31;100298.88;;;10.32;72.07
33554;BME280;19885;42.208;24.952;2023-01-13T14:43:48;100326.28;;;10.64;72.27
33554;BME280;19885;42.208;24.952;2023-01-13T14:46:14;100318.66;;;10.79;71.66
33554;BME280;19885;42.208;24.952;2023-01-13T14:48:43;100326.28;;;10.64;72.19
33554;BME280;19885;42.208;24.952;2023-01-13T14:51:20;100322.31;;;10.32;76.03
33554;BME280;19885;42.208;24.952;2023-01-13T14:53:47;100318.69;;;10.21;76.94
33554;BME280;19885;42.208;24.952;2023-01-13T14:59:29;100319.09;;;9.92;78.14
33554;BME280;19885;42.208;24.952;2023-01-13T15:01:47;100294.50;;;9.75;78.80
33554;BME280;19885;42.208;24.952;2023-01-13T15:04:33;100327.59;;;9.82;79.72
33554;BME280;19885;42.208;24.952;2023-01-13T15:07:01;100334.59;;;9.86;79.63
33554;BME280;19885;42.208;24.952;2023-01-13T15:09:34;100252.13;;;9.33;80.01
33554;BME280;19885;42.208;24.952;2023-01-13T15:12:21;100333.03;;;9.97;80.27
33554;BME280;19885;42.208;24.952;2023-01-13T15:14:50;100338.44;;;10.10;80.35
33554;BME280;19885;42.208;24.952;2023-01-13T15:17:16;100336.59;;;10.04;79.44
33554;BME280;19885;42.208;24.952;2023-01-13T15:19:41;100344.34;;;9.99;79.88
33554;BME280;19885;42.208;24.952;2023-01-13T15:22:07;100345.88;;;9.88;80.87
33554;BME280;19885;42.208;24.952;2023-01-13T15:24:32;100337.09;;;9.82;81.54
33554;BME280;19885;42.208;24.952;2023-01-13T15:26:58;100349.03;;;9.69;81.68
33554;BME280;19885;42.208;24.952;2023-01-13T15:29:23;100344.56;;;9.62;83.25